Highlands Peak, California Weather observations

Data are for observation ending at time listed.
 Day   Time    Ave.   Ave.  Ave.  Vector   Max.   Stn.    Total    Solar   Ave.  
  of    of     Air    Rel.  Wind   Wind    Wind   Baro.  Precip.   Rad.    Soil  
Year   Day     Temp.  Hum.  Speed  Dir.    Gust   Pres.                    Temp. 
2015   (PST)    F      %     mph   deg.    mph     mb.     in.     W/m2     F   
------------------------------------------------------------------------------
  28    7:50   52.3    47    3.5   215      7.0   936.0    0.00      64    50.9
  28    8:00   53.8    45    3.7   191      5.6   936.1    0.00     137    50.9
  28    8:10   54.6    45    3.2   139      4.6   936.2    0.00     170    50.8
  28    8:20   55.4    41    1.4    99      3.0   936.2    0.00     204    50.8
  28    8:30   55.9    40    1.9    64      4.2   936.3    0.00     237    50.8
  28    8:40   55.7    38    1.0   286      2.8   936.3    0.00     269    50.8
  28    8:50   56.0    39    2.2   214      3.4   936.2    0.00     302    50.7
  28    9:00   56.8    41    2.1   199      3.6   936.2    0.00     333    50.7
  28    9:10   57.0    41    3.0   190      4.5   936.1    0.00     364    50.7
  28    9:20   58.4    39    2.0   171      3.9   936.0    0.00     394    50.7
  28    9:30   57.7    40    2.4   186      4.4   936.0    0.00     423    50.8
  28    9:40   57.8    39    2.8   194      5.4   936.0    0.00     451    50.8
  28    9:50   58.1    38    3.1   187      4.9   936.1    0.00     477    50.9
  28   10:00   58.8    38    4.0   174      6.3   936.2    0.00     501    50.9
  28   10:10   58.4    38    4.0   182      6.4   936.3    0.00     524    51.0
  28   10:20   58.5    39    4.4   176      8.2   936.3    0.00     547    51.2
  28   10:30   58.6    39    4.7   186      8.0   936.4    0.00     567    51.3
  28   10:40   58.3    39    5.2   192      8.4   936.4    0.00     585    51.4
  28   10:50   58.8    38    3.8   177      6.4   936.4    0.00     601    51.7
  28   11:00   59.0    37    2.0   203      5.0   936.4    0.00     617    51.9
  28   11:10   58.4    39    4.1   266      6.3   936.4    0.00     628    52.1
  28   11:20   58.0    42    4.7   267      6.8   936.4    0.00     620    52.3
  28   11:30   57.4    42    4.1   256      6.8   936.2    0.00     497    52.6
  28   11:40   57.8    43    2.2   234      5.5   936.1    0.00     583    52.8
  28   11:50   59.2    41    3.0   263      6.3   935.9    0.00     735    53.0
  28   12:00   58.9    42    3.9   270      7.2   935.8    0.00     675    53.3
  28   12:10   58.9    41    3.8   264      6.9   935.6    0.00     660    53.5
  28   12:20   58.5    43    4.3   270      6.8   935.4    0.00     640    53.8
  28   12:30   58.5    44    3.8   262      6.1   935.3    0.00     606    54.0
  28   12:40   59.0    44    3.7   261      6.5   935.1    0.00     509    54.2
  28   12:50   57.8    43    4.4   249      7.2   934.9    0.00     417    54.5
  28   13:00   57.6    45    3.5   266      6.2   934.8    0.00     461    54.7
  28   13:10   57.5    46    2.4   274      4.1   934.6    0.00     366    54.9
  28   13:20   57.4    46    2.1   263      4.5   934.4    0.00     364    55.1
  28   13:30   57.7    46    2.5   282      4.5   934.3    0.00     385    55.3
  28   13:40   58.1    44    1.9   282      3.8   934.1    0.00     471    55.5
  28   13:50   59.1    42    1.9   272      3.9   934.0    0.00     564    55.7
  28   14:00   60.3    40    2.1   263      5.0   934.0    0.00     576    56.0
  28   14:10   61.1    39    1.8   284      3.9   933.9    0.00     519    56.2
  28   14:20   59.8    42    2.8   280      4.2   933.8    0.00     507    56.5
  28   14:30   59.9    44    2.0   282      4.1   933.7    0.00     479    56.7
  28   14:40   59.3    44    3.4   264      4.9   933.7    0.00     364    56.9
  28   14:50   58.8    43    2.3   276      5.0   933.6    0.00     354    57.1
  28   15:00   58.9    42    2.7   238      5.3   933.6    0.00     414    57.3
  28   15:10   59.8    42    2.8   204      4.8   933.7    0.00     261    57.5
  28   15:20   59.6    42    2.2   194      4.6   933.7    0.00     203    57.7
  28   15:30   59.3    43    1.8   194      3.7   933.7    0.00     253    57.9
  28   15:40   60.9    40    1.7   215      5.1   933.7    0.00     358    58.1
  28   15:50   61.9    36    2.8   227      5.8   933.8    0.00     417    58.3
  28   16:00   61.2    37    3.1   236      6.5   933.8    0.00     307    58.5
  28   16:10   61.2    36    2.0   211      4.7   933.8    0.00     289    58.6
  28   16:20   60.5    37    3.5   178      6.1   933.8    0.00     261    58.7
  28   16:30   60.0    38    3.0   189      5.8   933.8    0.00     221    58.9
  28   16:40   60.2    37    3.3   214      4.8   933.9    0.00     120    59.0
  28   16:50   58.6    40    2.0   210      3.5   933.9    0.00      76    59.1
  28   17:00   58.3    42    1.9   218      2.6   934.0    0.00      67    59.2
  28   17:10   59.3    41    1.3   240      2.4   934.0    0.00      67    59.3
  28   17:20   57.4    39    1.9   275      3.5   934.0    0.00      23    59.4
  28   17:30   56.6    37    0.6   274      1.8   934.0    0.00       8    59.4
  28   17:40   56.4    34    1.4   296      1.8   934.0    0.00       4    59.5
  28   17:50   56.4    33    1.4   300      2.0   934.0    0.00       1    59.5
  28   18:00   56.4    33    0.2   301      0.7   934.1    0.00       0    59.5
  28   18:10   56.4    33    0.9   327      2.5   934.1    0.00       0    59.5
  28   18:20   55.8    35    2.9   326      3.4   934.2    0.00       0    59.4
  28   18:30   55.5    38    2.7     5      4.2   934.2    0.00       0    59.3
  28   18:40   55.6    41    2.5     3      4.0   934.1    0.00       0    59.3
  28   18:50   55.6    47    4.5    56      6.6   934.1    0.00       0    59.1
  28   19:00   55.1    48    5.4    56      6.4   934.0    0.00       0    58.9
  28   19:10   54.8    50    4.9    56      6.6   934.0    0.00       0    58.8
  28   19:20   54.4    50    4.9    61      6.6   934.0    0.00       0    58.7
  28   19:30   54.5    51    4.8    40      6.6   934.0    0.00       0    58.5
  28   19:40   54.5    52    5.3    42      7.4   934.1    0.00       0    58.4
  28   19:50   53.9    54    6.2    80     10.7   934.1    0.00       0    58.3
  28   20:00   53.9    55    9.5    91     16.7   934.0    0.00       0    58.2
  28   20:10   54.4    55    8.3    96     14.9   934.0    0.00       0    58.0
  28   20:20   53.6    56    7.5    79     11.2   934.0    0.00       0    57.9
  28   20:30   54.1    56   11.3   100     18.0   934.0    0.00       0    57.7
  28   20:40   54.3    55    8.9   107     13.4   934.1    0.00       0    57.6
  28   20:50   54.6    54    9.3   115     14.5   934.1    0.00       0    57.3
  28   21:00   54.8    54    9.0   114     14.1   934.2    0.00       0    57.2
  28   21:10   54.6    55   10.5   111     15.5   934.2    0.00       0    57.0
  28   21:20   54.7    55    6.6   122     12.0   934.2    0.00       0    57.0
  28   21:30   54.3    57    8.7   103     15.7   934.1    0.00       0    57.0
  28   21:40   54.0    58    8.7   103     15.3   934.0    0.00       0    56.9
  28   21:50   53.9    58    9.9   114     15.8   934.0    0.00       0    56.8
  28   22:00   54.2    57    3.5   154      7.2   934.2    0.00       0    56.7
  28   22:10   53.9    57    3.6   162      5.6   934.2    0.00       0    56.6
  28   22:20   53.7    56    4.2   148      5.8   934.2    0.00       0    56.4
  28   22:30   53.8    54    4.6   129      9.1   934.2    0.00       0    56.2
  28   22:40   53.1    58    4.3   120      8.3   934.2    0.00       0    56.2
  28   22:50   53.0    59    1.2    82      3.4   934.2    0.00       0    56.2
  28   23:00   53.0    60    4.8    98      7.6   934.1    0.00       0    56.2
  28   23:10   53.1    58    4.6   102      6.1   934.0    0.00       0    56.1
  28   23:20   53.6    56    3.4   142      6.1   934.0    0.00       0    56.0
  28   23:30   53.3    55    4.2   177      5.0   934.0    0.00       0    55.9
  28   23:40   53.2    56    1.0   173      3.4   934.0    0.00       0    55.9
  28   23:50   53.7    55    0.1    64      2.0   933.9    0.00       0    55.7
  29    0:00   54.0    55    3.6    82      9.0   933.8    0.00       0    55.7
  29    0:10   54.1    55    4.8   107      8.3   933.7    0.00       0    55.6
  29    0:20   53.3    56    4.3   190      5.0   933.8    0.00       0    55.4
  29    0:30   53.1    56    3.1   176      3.8   933.7    0.00       0    55.3
  29    0:40   53.1    56    3.3   176      4.0   933.7    0.00       0    55.3
  29    0:50   53.3    56    1.7   168      2.8   933.6    0.00       0    55.1
  29    1:00   53.8    54    0.1   258      1.5   933.5    0.00       0    55.1
  29    1:10   54.0    55    1.6   349      6.0   933.4    0.00       0    55.1
  29    1:20   53.6    55    2.8    93      5.5   933.4    0.00       0    55.1
  29    1:30   53.9    52    3.4   108      6.4   933.3    0.00       0    54.9
  29    1:40   54.7    49    3.6   137      5.4   933.2    0.00       0    54.6
  29    1:50   54.7    49    3.0   138      4.2   933.2    0.00       0    54.5
  29    2:00   55.0    48    3.6   158      5.3   933.2    0.00       0    54.4
  29    2:10   55.1    47    3.8   155      5.2   933.2    0.00       0    54.2
  29    2:20   55.3    47    3.7   153      4.9   933.2    0.00       0    54.1
  29    2:30   55.3    48    2.4   163      3.6   933.2    0.00       0    54.1
  29    2:40   55.2    50    0.9   202      2.3   933.1    0.00       0    54.2
  29    2:50   54.9    47    2.5    63      4.9   933.0    0.00       0    54.3
  29    3:00   55.3    43    1.2     4      2.4   933.0    0.00       0    54.2
  29    3:10   55.1    46    1.7   280      2.6   932.9    0.00       0    54.2
  29    3:20   55.0    51    1.4   228      2.1   932.9    0.00       0    54.1
  29    3:30   55.1    51    0.8   233      1.6   932.8    0.00       0    54.1
  29    3:40   54.9    52    1.3   298      3.1   932.7    0.00       0    54.0
  29    3:50   54.0    53    2.7   329      3.2   932.7    0.00       0    54.0
  29    4:00   54.4    48    1.8    56      3.1   932.6    0.00       0    54.0
  29    4:10   54.3    49    4.4    81      7.7   932.6    0.00       0    53.9
  29    4:20   53.7    50    6.5    74     10.8   932.5    0.00       0    53.8
  29    4:30   53.7    53    7.0    77     10.6   932.4    0.00       0    53.7
  29    4:40   53.6    53    6.3    82     10.6   932.3    0.00       0    53.6
  29    4:50   54.1    51    5.4    97      8.8   932.2    0.00       0    53.5
  29    5:00   54.3    49    2.7   117      5.8   932.2    0.00       0    53.4
  29    5:10   54.7    49    1.4    58      3.6   932.2    0.00       0    53.4
  29    5:20   54.0    52    4.6    76      7.1   932.1    0.00       0    53.4
  29    5:30   53.9    52    4.5    86      7.6   932.1    0.00       0    53.3
  29    5:40   55.2    46    2.3   128      4.0   932.1    0.00       0    53.3
  29    5:50   55.9    44    2.0   210      3.9   932.1    0.00       0    53.2
  29    6:00   55.7    44    1.9   248      3.4   932.2    0.00       0    53.1
  29    6:10   55.3    45    0.3   157      1.5   932.2    0.00       0    53.0
  29    6:20   55.1    45    0.5   108      1.7   932.3    0.00       0    53.0
  29    6:30   55.0    46    1.6   297      4.2   932.4    0.00       0    53.0
  29    6:40   54.4    49    1.3   330      3.1   932.4    0.00       0    52.9
  29    6:50   54.2    50    0.7   144      2.2   932.4    0.00       0    52.8
  29    7:00   54.8    47    2.8   146      4.7   932.4    0.00       0    52.6
  29    7:10   54.9    48    2.9   170      6.1   932.5    0.00       2    52.5
  29    7:20   54.9    48    1.1   231      2.5   932.5    0.00       4    52.5
  29    7:30   55.0    48    0.8   293      2.1   932.5    0.00       7    52.5
  29    7:40   54.8    48    0.9   227      2.1   932.5    0.00      11    52.4

Return to Highlands Peak graphs page.


Western Regional Climate Center,wrcc@dri.edu